sensor_id;sensor_type;location;lat;lon;timestamp;pressure;altitude;pressure_sealevel;temperature;humidity
48872;BME280;36154;51.674;7.824;2023-11-19T00:00:59;100099.03;;;20.90;50.30
48872;BME280;36154;51.674;7.824;2023-11-19T00:03:25;100098.16;;;20.91;50.27
48872;BME280;36154;51.674;7.824;2023-11-19T00:05:50;100096.38;;;20.91;50.16
48872;BME280;36154;51.674;7.824;2023-11-19T00:08:15;100095.50;;;20.92;50.17
48872;BME280;36154;51.674;7.824;2023-11-19T00:10:41;100085.97;;;20.93;50.10
48872;BME280;36154;51.674;7.824;2023-11-19T00:13:06;100077.31;;;20.94;50.27
48872;BME280;36154;51.674;7.824;2023-11-19T00:15:32;100086.81;;;20.93;49.99
48872;BME280;36154;51.674;7.824;2023-11-19T00:17:57;100092.84;;;20.94;50.05
48872;BME280;36154;51.674;7.824;2023-11-19T00:20:22;100100.63;;;20.94;49.75
48872;BME280;36154;51.674;7.824;2023-11-19T00:22:48;100105.84;;;20.92;50.06
48872;BME280;36154;51.674;7.824;2023-11-19T00:25:16;100098.97;;;20.91;49.91
48872;BME280;36154;51.674;7.824;2023-11-19T00:27:42;100109.34;;;20.91;49.81
48872;BME280;36154;51.674;7.824;2023-11-19T00:30:10;100104.22;;;20.90;49.77
48872;BME280;36154;51.674;7.824;2023-11-19T00:32:35;100109.44;;;20.88;49.70
48872;BME280;36154;51.674;7.824;2023-11-19T00:35:03;100108.63;;;20.88;49.79
48872;BME280;36154;51.674;7.824;2023-11-19T00:37:29;100095.72;;;20.86;49.82
48872;BME280;36154;51.674;7.824;2023-11-19T00:39:54;100094.03;;;20.85;49.90
48872;BME280;36154;51.674;7.824;2023-11-19T00:42:21;100092.38;;;20.84;49.91
48872;BME280;36154;51.674;7.824;2023-11-19T00:44:46;100086.38;;;20.82;49.85
48872;BME280;36154;51.674;7.824;2023-11-19T00:47:12;100081.19;;;20.82;50.04
48872;BME280;36154;51.674;7.824;2023-11-19T00:49:37;100076.94;;;20.81;49.88
48872;BME280;36154;51.674;7.824;2023-11-19T00:52:03;100062.34;;;20.78;49.86
48872;BME280;36154;51.674;7.824;2023-11-19T00:54:28;100067.53;;;20.78;50.03
48872;BME280;36154;51.674;7.824;2023-11-19T00:56:54;100069.28;;;20.78;50.04
48872;BME280;36154;51.674;7.824;2023-11-19T00:59:19;100070.19;;;20.77;49.99
48872;BME280;36154;51.674;7.824;2023-11-19T01:01:45;100056.41;;;20.76;50.10
48872;BME280;36154;51.674;7.824;2023-11-19T01:04:10;100048.69;;;20.75;49.98
48872;BME280;36154;51.674;7.824;2023-11-19T01:06:35;100064.22;;;20.75;50.04
48872;BME280;36154;51.674;7.824;2023-11-19T01:09:01;100053.09;;;20.73;50.11
48872;BME280;36154;51.674;7.824;2023-11-19T01:11:26;100045.31;;;20.73;50.13
48872;BME280;36154;51.674;7.824;2023-11-19T01:13:52;100042.78;;;20.71;50.04
48872;BME280;36154;51.674;7.824;2023-11-19T01:16:18;100034.19;;;20.71;50.29
48872;BME280;36154;51.674;7.824;2023-11-19T01:18:46;100037.69;;;20.70;50.08
48872;BME280;36154;51.674;7.824;2023-11-19T01:21:12;100042.03;;;20.69;50.12
48872;BME280;36154;51.674;7.824;2023-11-19T01:23:40;100049.84;;;20.67;50.19
48872;BME280;36154;51.674;7.824;2023-11-19T01:26:05;100044.66;;;20.67;50.18
48872;BME280;36154;51.674;7.824;2023-11-19T01:28:30;100042.13;;;20.66;50.20
48872;BME280;36154;51.674;7.824;2023-11-19T01:30:56;100041.31;;;20.65;50.20
48872;BME280;36154;51.674;7.824;2023-11-19T01:33:21;100037.00;;;20.64;50.19
48872;BME280;36154;51.674;7.824;2023-11-19T01:35:46;100038.78;;;20.64;50.28
48872;BME280;36154;51.674;7.824;2023-11-19T01:38:11;100036.25;;;20.62;50.22
48872;BME280;36154;51.674;7.824;2023-11-19T01:40:37;100038.81;;;20.62;50.21
48872;BME280;36154;51.674;7.824;2023-11-19T01:43:03;100038.81;;;20.62;50.23
48872;BME280;36154;51.674;7.824;2023-11-19T01:45:29;100034.53;;;20.61;50.18
48872;BME280;36154;51.674;7.824;2023-11-19T01:48:00;100036.28;;;20.61;50.21
48872;BME280;36154;51.674;7.824;2023-11-19T01:50:28;100011.31;;;20.60;50.30
48872;BME280;36154;51.674;7.824;2023-11-19T01:52:55;100007.88;;;20.59;50.28
48872;BME280;36154;51.674;7.824;2023-11-19T01:55:23;100000.13;;;20.59;50.27
48872;BME280;36154;51.674;7.824;2023-11-19T01:57:49;99993.25;;;20.58;50.22
48872;BME280;36154;51.674;7.824;2023-11-19T02:00:15;99993.25;;;20.58;50.25
48872;BME280;36154;51.674;7.824;2023-11-19T02:02:42;99990.66;;;20.58;50.25
48872;BME280;36154;51.674;7.824;2023-11-19T02:05:09;99986.41;;;20.57;50.30
48872;BME280;36154;51.674;7.824;2023-11-19T02:07:35;99985.53;;;20.57;50.26
48872;BME280;36154;51.674;7.824;2023-11-19T02:10:00;99966.59;;;20.56;50.14
48872;BME280;36154;51.674;7.824;2023-11-19T02:12:27;99962.34;;;20.55;50.17
48872;BME280;36154;51.674;7.824;2023-11-19T02:14:59;99966.66;;;20.55;50.26
48872;BME280;36154;51.674;7.824;2023-11-19T02:17:28;99966.66;;;20.55;50.41
48872;BME280;36154;51.674;7.824;2023-11-19T02:19:56;99968.41;;;20.54;50.16
48872;BME280;36154;51.674;7.824;2023-11-19T02:22:22;99965.81;;;20.54;50.25
48872;BME280;36154;51.674;7.824;2023-11-19T02:24:49;99967.56;;;20.54;50.26
48872;BME280;36154;51.674;7.824;2023-11-19T02:27:24;99969.28;;;20.53;50.35
48872;BME280;36154;51.674;7.824;2023-11-19T02:29:54;99964.97;;;20.54;50.33
48872;BME280;36154;51.674;7.824;2023-11-19T02:32:19;99962.41;;;20.54;50.33
48872;BME280;36154;51.674;7.824;2023-11-19T02:34:45;99951.19;;;20.53;50.39
48872;BME280;36154;51.674;7.824;2023-11-19T02:37:10;99960.69;;;20.53;50.43
48872;BME280;36154;51.674;7.824;2023-11-19T02:39:36;99964.13;;;20.53;50.06
48872;BME280;36154;51.674;7.824;2023-11-19T02:42:02;99976.28;;;20.51;50.31
48872;BME280;36154;51.674;7.824;2023-11-19T02:44:27;99959.88;;;20.52;50.22
48872;BME280;36154;51.674;7.824;2023-11-19T02:46:55;99957.28;;;20.52;50.28
48872;BME280;36154;51.674;7.824;2023-11-19T02:49:24;99950.34;;;20.53;50.28
48872;BME280;36154;51.674;7.824;2023-11-19T02:51:49;99946.94;;;20.52;50.24
48872;BME280;36154;51.674;7.824;2023-11-19T02:54:14;99954.69;;;20.52;50.29
48872;BME280;36154;51.674;7.824;2023-11-19T02:56:42;99946.97;;;20.51;50.31
48872;BME280;36154;51.674;7.824;2023-11-19T02:59:07;99937.47;;;20.51;50.30
48872;BME280;36154;51.674;7.824;2023-11-19T03:01:40;99938.34;;;20.50;50.23
48872;BME280;36154;51.674;7.824;2023-11-19T03:04:08;99933.19;;;20.50;50.45
48872;BME280;36154;51.674;7.824;2023-11-19T03:06:37;99934.03;;;20.51;50.33
48872;BME280;36154;51.674;7.824;2023-11-19T03:09:02;99940.94;;;20.50;50.35
48872;BME280;36154;51.674;7.824;2023-11-19T03:11:35;99928.00;;;20.50;50.22
48872;BME280;36154;51.674;7.824;2023-11-19T03:14:00;99928.00;;;20.50;50.29
48872;BME280;36154;51.674;7.824;2023-11-19T03:16:25;99928.00;;;20.50;50.27
48872;BME280;36154;51.674;7.824;2023-11-19T03:18:50;99928.94;;;20.49;50.28
48872;BME280;36154;51.674;7.824;2023-11-19T03:21:16;99932.34;;;20.49;50.29
48872;BME280;36154;51.674;7.824;2023-11-19T03:23:41;99936.69;;;20.49;50.22
48872;BME280;36154;51.674;7.824;2023-11-19T03:26:10;99922.94;;;20.48;50.37
48872;BME280;36154;51.674;7.824;2023-11-19T03:28:35;99928.09;;;20.48;50.29
48872;BME280;36154;51.674;7.824;2023-11-19T03:31:04;99924.66;;;20.48;50.59
48872;BME280;36154;51.674;7.824;2023-11-19T03:33:29;99919.47;;;20.48;50.18
48872;BME280;36154;51.674;7.824;2023-11-19T03:35:56;99913.47;;;20.47;50.30
48872;BME280;36154;51.674;7.824;2023-11-19T03:38:22;99914.28;;;20.48;50.36
48872;BME280;36154;51.674;7.824;2023-11-19T03:40:48;99905.69;;;20.47;50.37
48872;BME280;36154;51.674;7.824;2023-11-19T03:43:13;99907.47;;;20.47;50.31
48872;BME280;36154;51.674;7.824;2023-11-19T03:45:38;99900.53;;;20.47;49.90
48872;BME280;36154;51.674;7.824;2023-11-19T03:48:04;99920.41;;;20.47;50.32
48872;BME280;36154;51.674;7.824;2023-11-19T03:50:29;99928.16;;;20.47;50.26
48872;BME280;36154;51.674;7.824;2023-11-19T03:52:54;99929.84;;;20.46;50.19
48872;BME280;36154;51.674;7.824;2023-11-19T03:55:19;99929.84;;;20.46;49.97
48872;BME280;36154;51.674;7.824;2023-11-19T03:57:45;99930.75;;;20.47;50.32
48872;BME280;36154;51.674;7.824;2023-11-19T04:00:12;99922.09;;;20.46;50.27
48872;BME280;36154;51.674;7.824;2023-11-19T04:02:39;99924.69;;;20.46;50.37
48872;BME280;36154;51.674;7.824;2023-11-19T04:05:05;99926.44;;;20.46;50.25
48872;BME280;36154;51.674;7.824;2023-11-19T04:07:31;99922.97;;;20.47;50.18
48872;BME280;36154;51.674;7.824;2023-11-19T04:09:57;99919.50;;;20.46;50.74
48872;BME280;36154;51.674;7.824;2023-11-19T04:12:22;99921.25;;;20.46;50.33
48872;BME280;36154;51.674;7.824;2023-11-19T04:14:47;99926.44;;;20.46;50.23
48872;BME280;36154;51.674;7.824;2023-11-19T04:17:13;99921.25;;;20.46;50.18
48872;BME280;36154;51.674;7.824;2023-11-19T04:19:38;99932.34;;;20.49;50.26
48872;BME280;36154;51.674;7.824;2023-11-19T04:22:06;99931.41;;;20.52;50.50
48872;BME280;36154;51.674;7.824;2023-11-19T04:24:31;99935.53;;;20.56;50.45
48872;BME280;36154;51.674;7.824;2023-11-19T04:26:57;99933.66;;;20.60;50.35
48872;BME280;36154;51.674;7.824;2023-11-19T04:29:22;99929.19;;;20.63;50.34
48872;BME280;36154;51.674;7.824;2023-11-19T04:31:47;99931.66;;;20.66;50.46
48872;BME280;36154;51.674;7.824;2023-11-19T04:34:12;99920.38;;;20.69;50.29
48872;BME280;36154;51.674;7.824;2023-11-19T04:36:38;99916.78;;;20.72;50.23
48872;BME280;36154;51.674;7.824;2023-11-19T04:39:04;99921.84;;;20.75;50.58
48872;BME280;36154;51.674;7.824;2023-11-19T04:41:50;99922.63;;;20.77;50.33
48872;BME280;36154;51.674;7.824;2023-11-19T04:44:19;99914.72;;;20.80;50.17
48872;BME280;36154;51.674;7.824;2023-11-19T04:46:45;99925.78;;;20.83;50.26
48872;BME280;36154;51.674;7.824;2023-11-19T04:49:11;99921.34;;;20.87;50.17
48872;BME280;36154;51.674;7.824;2023-11-19T04:51:43;99928.19;;;20.88;50.22
48872;BME280;36154;51.674;7.824;2023-11-19T04:54:09;99925.56;;;20.90;50.10
48872;BME280;36154;51.674;7.824;2023-11-19T04:56:36;99933.25;;;20.91;50.08
48872;BME280;36154;51.674;7.824;2023-11-19T04:59:02;99921.09;;;20.93;50.29
48872;BME280;36154;51.674;7.824;2023-11-19T05:01:28;99930.59;;;20.93;50.20
48872;BME280;36154;51.674;7.824;2023-11-19T05:03:53;99935.72;;;20.94;50.13
48872;BME280;36154;51.674;7.824;2023-11-19T05:06:18;99944.25;;;20.96;50.19
48872;BME280;36154;51.674;7.824;2023-11-19T05:08:44;99934.81;;;20.95;50.19
48872;BME280;36154;51.674;7.824;2023-11-19T05:11:09;99940.84;;;20.96;50.10
48872;BME280;36154;51.674;7.824;2023-11-19T05:13:37;99944.31;;;20.95;50.08
48872;BME280;36154;51.674;7.824;2023-11-19T05:16:03;99945.16;;;20.95;49.97
48872;BME280;36154;51.674;7.824;2023-11-19T05:18:28;99950.34;;;20.95;50.10
48872;BME280;36154;51.674;7.824;2023-11-19T05:20:54;99946.09;;;20.94;50.26
48872;BME280;36154;51.674;7.824;2023-11-19T05:23:19;99954.69;;;20.95;49.87
48872;BME280;36154;51.674;7.824;2023-11-19T05:25:45;99939.22;;;20.93;49.81
48872;BME280;36154;51.674;7.824;2023-11-19T05:28:10;99945.25;;;20.94;49.80
48872;BME280;36154;51.674;7.824;2023-11-19T05:30:36;99951.31;;;20.93;49.81
48872;BME280;36154;51.674;7.824;2023-11-19T05:33:01;99943.63;;;20.91;49.83
48872;BME280;36154;51.674;7.824;2023-11-19T05:35:26;99949.69;;;20.90;49.63
48872;BME280;36154;51.674;7.824;2023-11-19T05:37:52;99946.25;;;20.90;49.74
48872;BME280;36154;51.674;7.824;2023-11-19T05:40:17;99953.25;;;20.88;49.65
48872;BME280;36154;51.674;7.824;2023-11-19T05:42:43;99950.72;;;20.86;49.68
48872;BME280;36154;51.674;7.824;2023-11-19T05:45:11;99946.44;;;20.85;49.81
48872;BME280;36154;51.674;7.824;2023-11-19T05:47:36;99949.97;;;20.84;49.91
48872;BME280;36154;51.674;7.824;2023-11-19T05:50:02;99956.94;;;20.82;49.87
48872;BME280;36154;51.674;7.824;2023-11-19T05:52:28;99958.63;;;20.83;50.02
48872;BME280;36154;51.674;7.824;2023-11-19T05:54:58;99964.69;;;20.82;49.91
48872;BME280;36154;51.674;7.824;2023-11-19T05:57:23;99970.78;;;20.81;49.95
48872;BME280;36154;51.674;7.824;2023-11-19T05:59:50;99960.50;;;20.79;50.02
48872;BME280;36154;51.674;7.824;2023-11-19T06:02:15;99965.72;;;20.78;49.96
48872;BME280;36154;51.674;7.824;2023-11-19T06:04:41;99968.31;;;20.78;50.02
48872;BME280;36154;51.674;7.824;2023-11-19T06:07:09;99961.44;;;20.77;50.34
48872;BME280;36154;51.674;7.824;2023-11-19T06:09:34;99962.38;;;20.76;50.02
48872;BME280;36154;51.674;7.824;2023-11-19T06:11:59;99969.31;;;20.75;50.05
48872;BME280;36154;51.674;7.824;2023-11-19T06:14:27;99964.19;;;20.74;50.03
48872;BME280;36154;51.674;7.824;2023-11-19T06:16:52;99957.31;;;20.73;50.07
48872;BME280;36154;51.674;7.824;2023-11-19T06:19:18;99968.56;;;20.72;50.10
48872;BME280;36154;51.674;7.824;2023-11-19T06:21:43;99963.38;;;20.72;50.12
48872;BME280;36154;51.674;7.824;2023-11-19T06:24:08;99965.13;;;20.71;50.12
48872;BME280;36154;51.674;7.824;2023-11-19T06:26:34;99961.72;;;20.71;50.12
48872;BME280;36154;51.674;7.824;2023-11-19T06:28:59;99963.44;;;20.70;50.12
48872;BME280;36154;51.674;7.824;2023-11-19T06:31:25;99967.78;;;20.70;50.09
48872;BME280;36154;51.674;7.824;2023-11-19T06:33:50;99960.94;;;20.68;50.07
48872;BME280;36154;51.674;7.824;2023-11-19T06:36:15;99978.19;;;20.68;50.09
48872;BME280;36154;51.674;7.824;2023-11-19T06:38:43;99979.97;;;20.67;50.08
48872;BME280;36154;51.674;7.824;2023-11-19T06:41:09;99979.19;;;20.65;50.05
48872;BME280;36154;51.674;7.824;2023-11-19T06:43:35;99989.53;;;20.65;50.11
48872;BME280;36154;51.674;7.824;2023-11-19T06:46:01;99984.34;;;20.65;50.10
48872;BME280;36154;51.674;7.824;2023-11-19T06:48:26;99982.66;;;20.64;50.08
48872;BME280;36154;51.674;7.824;2023-11-19T06:50:52;99980.06;;;20.64;50.10
48872;BME280;36154;51.674;7.824;2023-11-19T06:53:17;99987.84;;;20.64;50.08
48872;BME280;36154;51.674;7.824;2023-11-19T06:55:43;99986.13;;;20.63;50.12
48872;BME280;36154;51.674;7.824;2023-11-19T06:58:08;99994.81;;;20.62;50.22
48872;BME280;36154;51.674;7.824;2023-11-19T07:00:33;99994.81;;;20.62;50.10
48872;BME280;36154;51.674;7.824;2023-11-19T07:03:01;100003.47;;;20.61;50.14
48872;BME280;36154;51.674;7.824;2023-11-19T07:05:26;100008.66;;;20.61;50.01
48872;BME280;36154;51.674;7.824;2023-11-19T07:07:51;100006.13;;;20.60;50.08
48872;BME280;36154;51.674;7.824;2023-11-19T07:10:16;100000.13;;;20.59;50.12
48872;BME280;36154;51.674;7.824;2023-11-19T07:12:42;100013.06;;;20.59;50.37
48872;BME280;36154;51.674;7.824;2023-11-19T07:15:07;100012.16;;;20.60;50.09
48872;BME280;36154;51.674;7.824;2023-11-19T07:17:33;100024.31;;;20.58;50.16
48872;BME280;36154;51.674;7.824;2023-11-19T07:20:00;100016.53;;;20.58;50.13
48872;BME280;36154;51.674;7.824;2023-11-19T07:22:25;100008.78;;;20.58;50.16
48872;BME280;36154;51.674;7.824;2023-11-19T07:24:51;100020.03;;;20.57;50.07
48872;BME280;36154;51.674;7.824;2023-11-19T07:27:18;100007.09;;;20.57;50.13
48872;BME280;36154;51.674;7.824;2023-11-19T07:29:43;100029.47;;;20.58;50.14
48872;BME280;36154;51.674;7.824;2023-11-19T07:32:09;100027.81;;;20.57;50.15
48872;BME280;36154;51.674;7.824;2023-11-19T07:34:35;100031.28;;;20.56;50.04
48872;BME280;36154;51.674;7.824;2023-11-19T07:37:00;100027.81;;;20.57;50.04
48872;BME280;36154;51.674;7.824;2023-11-19T07:39:28;100039.06;;;20.56;50.01
48872;BME280;36154;51.674;7.824;2023-11-19T07:41:53;100026.16;;;20.55;50.04
48872;BME280;36154;51.674;7.824;2023-11-19T07:44:19;100024.44;;;20.55;50.10
48872;BME280;36154;51.674;7.824;2023-11-19T07:46:44;100030.47;;;20.56;50.13
48872;BME280;36154;51.674;7.824;2023-11-19T07:49:10;100024.44;;;20.55;50.04
48872;BME280;36154;51.674;7.824;2023-11-19T07:51:35;100033.09;;;20.54;50.17
48872;BME280;36154;51.674;7.824;2023-11-19T07:54:01;100040.88;;;20.54;50.18
48872;BME280;36154;51.674;7.824;2023-11-19T07:56:27;100050.31;;;20.55;50.13
48872;BME280;36154;51.674;7.824;2023-11-19T07:58:52;100057.22;;;20.55;50.06
48872;BME280;36154;51.674;7.824;2023-11-19T08:01:17;100053.81;;;20.54;50.09
48872;BME280;36154;51.674;7.824;2023-11-19T08:03:43;100053.81;;;20.54;49.71
48872;BME280;36154;51.674;7.824;2023-11-19T08:06:08;100047.78;;;20.54;49.98
48872;BME280;36154;51.674;7.824;2023-11-19T08:08:34;100042.63;;;20.54;50.06
48872;BME280;36154;51.674;7.824;2023-11-19T08:11:00;100048.69;;;20.53;50.07
48872;BME280;36154;51.674;7.824;2023-11-19T08:13:25;100052.09;;;20.53;50.00
48872;BME280;36154;51.674;7.824;2023-11-19T08:15:51;100059.88;;;20.53;49.96
48872;BME280;36154;51.674;7.824;2023-11-19T08:18:16;100063.31;;;20.54;50.02
48872;BME280;36154;51.674;7.824;2023-11-19T08:20:43;100068.50;;;20.54;50.08
48872;BME280;36154;51.674;7.824;2023-11-19T08:23:09;100068.50;;;20.54;50.11
48872;BME280;36154;51.674;7.824;2023-11-19T08:25:35;100066.84;;;20.51;50.01
48872;BME280;36154;51.674;7.824;2023-11-19T08:28:00;100073.72;;;20.52;50.20
48872;BME280;36154;51.674;7.824;2023-11-19T08:30:26;100075.41;;;20.53;50.13
48872;BME280;36154;51.674;7.824;2023-11-19T08:32:52;100084.06;;;20.52;50.07
48872;BME280;36154;51.674;7.824;2023-11-19T08:35:17;100072.91;;;20.50;48.25
48872;BME280;36154;51.674;7.824;2023-11-19T08:37:42;100082.03;;;20.37;46.55
48872;BME280;36154;51.674;7.824;2023-11-19T08:40:08;100079.19;;;20.19;45.65
48872;BME280;36154;51.674;7.824;2023-11-19T08:42:34;100088.47;;;20.01;45.90
48872;BME280;36154;51.674;7.824;2023-11-19T08:45:00;100087.03;;;19.92;46.21
48872;BME280;36154;51.674;7.824;2023-11-19T08:47:25;100094.00;;;19.90;46.68
48872;BME280;36154;51.674;7.824;2023-11-19T08:49:51;100090.53;;;19.91;46.85
48872;BME280;36154;51.674;7.824;2023-11-19T08:52:17;100092.13;;;19.96;47.16
48872;BME280;36154;51.674;7.824;2023-11-19T08:54:43;100083.34;;;20.00;47.44
48872;BME280;36154;51.674;7.824;2023-11-19T08:57:08;100078.06;;;20.03;47.51
48872;BME280;36154;51.674;7.824;2023-11-19T08:59:34;100082.19;;;20.08;47.79
48872;BME280;36154;51.674;7.824;2023-11-19T09:02:00;100081.13;;;20.14;48.35
48872;BME280;36154;51.674;7.824;2023-11-19T09:04:25;100080.03;;;20.20;48.53
48872;BME280;36154;51.674;7.824;2023-11-19T09:06:50;100084.16;;;20.25;48.80
48872;BME280;36154;51.674;7.824;2023-11-19T09:09:16;100080.44;;;20.33;48.88
48872;BME280;36154;51.674;7.824;2023-11-19T09:11:41;100091.41;;;20.39;48.87
48872;BME280;36154;51.674;7.824;2023-11-19T09:14:07;100092.91;;;20.45;48.98
48872;BME280;36154;51.674;7.824;2023-11-19T09:16:32;100090.16;;;20.51;49.09
48872;BME280;36154;51.674;7.824;2023-11-19T09:18:58;100105.44;;;20.57;49.16
48872;BME280;36154;51.674;7.824;2023-11-19T09:21:27;100095.81;;;20.61;49.25
48872;BME280;36154;51.674;7.824;2023-11-19T09:23:54;100095.59;;;20.67;49.39
48872;BME280;36154;51.674;7.824;2023-11-19T09:26:20;100092.81;;;20.72;49.32
48872;BME280;36154;51.674;7.824;2023-11-19T09:28:45;100091.75;;;20.77;49.32
48872;BME280;36154;51.674;7.824;2023-11-19T09:31:17;100088.97;;;20.82;49.39
48872;BME280;36154;51.674;7.824;2023-11-19T09:33:43;100092.25;;;20.87;49.33
48872;BME280;36154;51.674;7.824;2023-11-19T09:36:09;100088.63;;;20.91;49.29
48872;BME280;36154;51.674;7.824;2023-11-19T09:38:35;100098.88;;;20.94;49.39
48872;BME280;36154;51.674;7.824;2023-11-19T09:41:05;100085.84;;;20.96;49.60
48872;BME280;36154;51.674;7.824;2023-11-19T09:43:33;100101.22;;;21.00;49.53
48872;BME280;36154;51.674;7.824;2023-11-19T09:46:04;100095.13;;;21.01;49.47
48872;BME280;36154;51.674;7.824;2023-11-19T09:48:32;100093.31;;;21.03;49.39
48872;BME280;36154;51.674;7.824;2023-11-19T09:50:58;100096.69;;;21.05;49.34
48872;BME280;36154;51.674;7.824;2023-11-19T09:53:24;100090.66;;;21.05;49.40
48872;BME280;36154;51.674;7.824;2023-11-19T09:55:50;100095.78;;;21.07;49.43
48872;BME280;36154;51.674;7.824;2023-11-19T09:58:16;100094.88;;;21.08;49.29
48872;BME280;36154;51.674;7.824;2023-11-19T10:00:42;100089.72;;;21.08;49.24
48872;BME280;36154;51.674;7.824;2023-11-19T10:03:09;100090.53;;;21.08;49.21
48872;BME280;36154;51.674;7.824;2023-11-19T10:05:36;100081.00;;;21.09;49.25
48872;BME280;36154;51.674;7.824;2023-11-19T10:08:03;100090.47;;;21.10;49.49
48872;BME280;36154;51.674;7.824;2023-11-19T10:10:28;100086.19;;;21.09;49.56
48872;BME280;36154;51.674;7.824;2023-11-19T10:12:54;100087.91;;;21.10;49.55
48872;BME280;36154;51.674;7.824;2023-11-19T10:15:21;100089.59;;;21.11;49.55
48872;BME280;36154;51.674;7.824;2023-11-19T10:17:47;100088.72;;;21.10;49.74
48872;BME280;36154;51.674;7.824;2023-11-19T10:20:13;100084.41;;;21.11;49.71
48872;BME280;36154;51.674;7.824;2023-11-19T10:22:38;100085.31;;;21.10;49.58
48872;BME280;36154;51.674;7.824;2023-11-19T10:25:05;100080.97;;;21.10;49.64
48872;BME280;36154;51.674;7.824;2023-11-19T10:27:30;100087.00;;;21.11;49.68
48872;BME280;36154;51.674;7.824;2023-11-19T10:29:59;100087.00;;;21.11;49.44
48872;BME280;36154;51.674;7.824;2023-11-19T10:32:24;100085.25;;;21.11;49.63
48872;BME280;36154;51.674;7.824;2023-11-19T10:34:50;100075.72;;;21.12;49.47
48872;BME280;36154;51.674;7.824;2023-11-19T10:37:34;100068.00;;;21.10;49.10
48872;BME280;36154;51.674;7.824;2023-11-19T10:40:02;100070.53;;;21.12;49.21
48872;BME280;36154;51.674;7.824;2023-11-19T10:42:30;100063.69;;;21.11;49.49
48872;BME280;36154;51.674;7.824;2023-11-19T10:44:55;100068.00;;;21.10;49.42
48872;BME280;36154;51.674;7.824;2023-11-19T10:47:22;100065.47;;;21.09;49.29
48872;BME280;36154;51.674;7.824;2023-11-19T10:49:47;100057.69;;;21.09;49.04
48872;BME280;36154;51.674;7.824;2023-11-19T10:52:17;100069.00;;;21.08;49.42
48872;BME280;36154;51.674;7.824;2023-11-19T10:54:44;100060.38;;;21.07;49.34
48872;BME280;36154;51.674;7.824;2023-11-19T10:57:19;100060.44;;;21.05;49.21
48872;BME280;36154;51.674;7.824;2023-11-19T10:59:46;100066.50;;;21.04;49.34
48872;BME280;36154;51.674;7.824;2023-11-19T11:02:14;100056.16;;;21.04;49.39
48872;BME280;36154;51.674;7.824;2023-11-19T11:04:41;100053.56;;;21.04;49.41
48872;BME280;36154;51.674;7.824;2023-11-19T11:07:08;100049.34;;;21.02;49.55
48872;BME280;36154;51.674;7.824;2023-11-19T11:09:34;100059.69;;;21.02;49.51
48872;BME280;36154;51.674;7.824;2023-11-19T11:12:00;100058.88;;;21.01;49.45
48872;BME280;36154;51.674;7.824;2023-11-19T11:14:26;100062.38;;;21.00;49.51
48872;BME280;36154;51.674;7.824;2023-11-19T11:16:53;100056.28;;;21.01;49.50
48872;BME280;36154;51.674;7.824;2023-11-19T11:19:18;100064.03;;;21.01;49.60
48872;BME280;36154;51.674;7.824;2023-11-19T11:21:47;100055.50;;;20.99;49.61
48872;BME280;36154;51.674;7.824;2023-11-19T11:32:54;100058.22;;;20.96;49.63
48872;BME280;36154;51.674;7.824;2023-11-19T11:37:55;100053.16;;;20.93;49.44
48872;BME280;36154;51.674;7.824;2023-11-19T11:40:22;100064.44;;;20.92;49.50
48872;BME280;36154;51.674;7.824;2023-11-19T11:42:49;100057.53;;;20.91;49.56
48872;BME280;36154;51.674;7.824;2023-11-19T11:45:17;100060.19;;;20.90;49.60
48872;BME280;36154;51.674;7.824;2023-11-19T11:50:09;100061.09;;;20.89;49.34
48872;BME280;36154;51.674;7.824;2023-11-19T11:55:34;100054.31;;;20.86;49.58
48872;BME280;36154;51.674;7.824;2023-11-19T11:58:01;100071.59;;;20.85;49.45
48872;BME280;36154;51.674;7.824;2023-11-19T12:00:29;100055.19;;;20.85;49.46
48872;BME280;36154;51.674;7.824;2023-11-19T12:02:56;100050.06;;;20.83;49.46
48872;BME280;36154;51.674;7.824;2023-11-19T12:05:22;100060.44;;;20.83;49.54
48872;BME280;36154;51.674;7.824;2023-11-19T12:07:55;100049.25;;;20.83;49.43
48872;BME280;36154;51.674;7.824;2023-11-19T12:10:21;100056.13;;;20.84;49.44
48872;BME280;36154;51.674;7.824;2023-11-19T12:12:47;100050.94;;;20.84;49.41
48872;BME280;36154;51.674;7.824;2023-11-19T12:15:12;100047.41;;;20.85;49.43
48872;BME280;36154;51.674;7.824;2023-11-19T12:17:47;100038.75;;;20.86;49.34
48872;BME280;36154;51.674;7.824;2023-11-19T12:20:25;100036.19;;;20.86;49.33
48872;BME280;36154;51.674;7.824;2023-11-19T12:22:52;100024.00;;;20.88;49.24
48872;BME280;36154;51.674;7.824;2023-11-19T12:25:19;100019.59;;;20.90;49.33
48872;BME280;36154;51.674;7.824;2023-11-19T12:27:46;100019.59;;;20.90;49.34
48872;BME280;36154;51.674;7.824;2023-11-19T12:30:16;100026.59;;;20.88;49.31
48872;BME280;36154;51.674;7.824;2023-11-19T12:32:46;100033.47;;;20.89;49.17
48872;BME280;36154;51.674;7.824;2023-11-19T12:35:11;100028.34;;;20.88;49.23
48872;BME280;36154;51.674;7.824;2023-11-19T12:37:44;100018.06;;;20.86;49.14
48872;BME280;36154;51.674;7.824;2023-11-19T12:40:21;100019.88;;;20.84;49.22
48872;BME280;36154;51.674;7.824;2023-11-19T12:42:52;100018.06;;;20.86;49.26
48872;BME280;36154;51.674;7.824;2023-11-19T12:45:18;100023.00;;;20.92;49.21
48872;BME280;36154;51.674;7.824;2023-11-19T12:47:46;100013.34;;;20.96;49.07
48872;BME280;36154;51.674;7.824;2023-11-19T12:50:13;100018.47;;;20.97;49.09
48872;BME280;36154;51.674;7.824;2023-11-19T12:52:39;100019.34;;;20.96;48.91
48872;BME280;36154;51.674;7.824;2023-11-19T12:55:06;100003.94;;;20.93;48.94
48872;BME280;36154;51.674;7.824;2023-11-19T12:57:48;100009.13;;;20.93;48.94
48872;BME280;36154;51.674;7.824;2023-11-19T13:00:22;100015.22;;;20.92;49.01
48872;BME280;36154;51.674;7.824;2023-11-19T13:02:49;100001.41;;;20.92;49.04
48872;BME280;36154;51.674;7.824;2023-11-19T13:05:28;99994.63;;;20.89;49.05
48872;BME280;36154;51.674;7.824;2023-11-19T13:08:03;100002.41;;;20.89;49.09